sensor_id;sensor_type;location;lat;lon;timestamp;temperature;humidity
60313;DHT22;46158;52.850;6.970;2023-07-20T00:01:14;20.20;79.00
60313;DHT22;46158;52.850;6.970;2023-07-20T00:03:40;20.20;79.10
60313;DHT22;46158;52.850;6.970;2023-07-20T00:06:05;20.20;79.10
60313;DHT22;46158;52.850;6.970;2023-07-20T00:08:31;20.20;79.00
60313;DHT22;46158;52.850;6.970;2023-07-20T00:10:57;20.20;79.70
60313;DHT22;46158;52.850;6.970;2023-07-20T00:13:22;20.20;79.00
60313;DHT22;46158;52.850;6.970;2023-07-20T00:15:48;20.20;79.00
60313;DHT22;46158;52.850;6.970;2023-07-20T00:18:14;20.20;79.00
60313;DHT22;46158;52.850;6.970;2023-07-20T00:20:40;20.20;79.00
60313;DHT22;46158;52.850;6.970;2023-07-20T00:23:06;20.20;79.00
60313;DHT22;46158;52.850;6.970;2023-07-20T00:25:32;20.20;79.00
60313;DHT22;46158;52.850;6.970;2023-07-20T00:27:59;20.20;79.00
60313;DHT22;46158;52.850;6.970;2023-07-20T00:30:24;20.20;79.00
60313;DHT22;46158;52.850;6.970;2023-07-20T00:32:50;20.20;79.00
60313;DHT22;46158;52.850;6.970;2023-07-20T00:35:16;20.20;79.00
60313;DHT22;46158;52.850;6.970;2023-07-20T00:37:42;20.20;79.70
60313;DHT22;46158;52.850;6.970;2023-07-20T00:40:08;20.10;79.00
60313;DHT22;46158;52.850;6.970;2023-07-20T00:42:34;20.10;78.90
60313;DHT22;46158;52.850;6.970;2023-07-20T00:45:00;20.20;79.00
60313;DHT22;46158;52.850;6.970;2023-07-20T00:47:27;20.10;78.90
60313;DHT22;46158;52.850;6.970;2023-07-20T00:49:53;20.10;78.90
60313;DHT22;46158;52.850;6.970;2023-07-20T00:52:21;20.10;78.90
60313;DHT22;46158;52.850;6.970;2023-07-20T00:54:49;20.10;78.90
60313;DHT22;46158;52.850;6.970;2023-07-20T00:57:15;20.10;78.90
60313;DHT22;46158;52.850;6.970;2023-07-20T00:59:43;20.10;78.90
60313;DHT22;46158;52.850;6.970;2023-07-20T01:02:09;20.10;78.90
60313;DHT22;46158;52.850;6.970;2023-07-20T01:04:35;20.10;78.80
60313;DHT22;46158;52.850;6.970;2023-07-20T01:12:43;20.10;78.90
60313;DHT22;46158;52.850;6.970;2023-07-20T01:15:12;20.10;78.90
60313;DHT22;46158;52.850;6.970;2023-07-20T01:17:38;20.10;79.00
60313;DHT22;46158;52.850;6.970;2023-07-20T01:20:04;20.10;78.80
60313;DHT22;46158;52.850;6.970;2023-07-20T01:28:44;20.10;78.80
60313;DHT22;46158;52.850;6.970;2023-07-20T01:31:40;20.10;78.80
60313;DHT22;46158;52.850;6.970;2023-07-20T01:34:09;20.10;79.00
60313;DHT22;46158;52.850;6.970;2023-07-20T01:36:37;20.10;78.90
60313;DHT22;46158;52.850;6.970;2023-07-20T01:39:04;20.00;78.80
60313;DHT22;46158;52.850;6.970;2023-07-20T01:41:30;20.00;78.80
60313;DHT22;46158;52.850;6.970;2023-07-20T01:43:59;20.00;78.80
60313;DHT22;46158;52.850;6.970;2023-07-20T01:46:25;20.10;78.90
60313;DHT22;46158;52.850;6.970;2023-07-20T01:48:50;20.00;78.80
60313;DHT22;46158;52.850;6.970;2023-07-20T01:51:16;20.00;78.80
60313;DHT22;46158;52.850;6.970;2023-07-20T01:53:43;20.00;78.80
60313;DHT22;46158;52.850;6.970;2023-07-20T01:56:09;20.00;78.80
60313;DHT22;46158;52.850;6.970;2023-07-20T01:58:35;20.00;78.80
60313;DHT22;46158;52.850;6.970;2023-07-20T02:01:01;20.00;79.50
60313;DHT22;46158;52.850;6.970;2023-07-20T02:03:27;20.00;78.80
60313;DHT22;46158;52.850;6.970;2023-07-20T02:05:53;20.00;78.80
60313;DHT22;46158;52.850;6.970;2023-07-20T02:08:18;20.00;78.80
60313;DHT22;46158;52.850;6.970;2023-07-20T02:10:48;20.00;78.80
60313;DHT22;46158;52.850;6.970;2023-07-20T02:13:13;20.00;78.80
60313;DHT22;46158;52.850;6.970;2023-07-20T02:15:39;20.00;78.80
60313;DHT22;46158;52.850;6.970;2023-07-20T02:18:05;20.00;78.80
60313;DHT22;46158;52.850;6.970;2023-07-20T02:20:31;20.00;78.80
60313;DHT22;46158;52.850;6.970;2023-07-20T02:22:57;20.00;78.80
60313;DHT22;46158;52.850;6.970;2023-07-20T02:25:23;20.00;78.80
60313;DHT22;46158;52.850;6.970;2023-07-20T02:27:49;20.00;78.80
60313;DHT22;46158;52.850;6.970;2023-07-20T02:30:15;20.00;78.80
60313;DHT22;46158;52.850;6.970;2023-07-20T02:32:41;19.90;78.70
60313;DHT22;46158;52.850;6.970;2023-07-20T02:35:11;19.90;78.70
60313;DHT22;46158;52.850;6.970;2023-07-20T02:37:37;19.90;78.70
60313;DHT22;46158;52.850;6.970;2023-07-20T02:40:03;19.90;78.80
60313;DHT22;46158;52.850;6.970;2023-07-20T02:42:30;19.90;78.70
60313;DHT22;46158;52.850;6.970;2023-07-20T02:44:56;19.90;78.70
60313;DHT22;46158;52.850;6.970;2023-07-20T02:47:21;19.90;78.70
60313;DHT22;46158;52.850;6.970;2023-07-20T02:49:47;19.90;78.70
60313;DHT22;46158;52.850;6.970;2023-07-20T02:52:12;19.90;78.70
60313;DHT22;46158;52.850;6.970;2023-07-20T02:54:38;19.90;78.60
60313;DHT22;46158;52.850;6.970;2023-07-20T02:57:04;19.90;78.60
60313;DHT22;46158;52.850;6.970;2023-07-20T02:59:29;19.90;78.60
60313;DHT22;46158;52.850;6.970;2023-07-20T03:01:55;19.90;78.70
60313;DHT22;46158;52.850;6.970;2023-07-20T03:04:21;19.90;78.60
60313;DHT22;46158;52.850;6.970;2023-07-20T03:06:47;19.90;78.60
60313;DHT22;46158;52.850;6.970;2023-07-20T03:09:12;19.90;78.60
60313;DHT22;46158;52.850;6.970;2023-07-20T03:11:38;19.90;78.60
60313;DHT22;46158;52.850;6.970;2023-07-20T03:14:04;19.90;78.60
60313;DHT22;46158;52.850;6.970;2023-07-20T03:16:30;19.90;78.60
60313;DHT22;46158;52.850;6.970;2023-07-20T03:18:58;19.90;78.60
60313;DHT22;46158;52.850;6.970;2023-07-20T03:21:25;19.80;78.60
60313;DHT22;46158;52.850;6.970;2023-07-20T03:23:50;19.90;79.30
60313;DHT22;46158;52.850;6.970;2023-07-20T03:26:16;19.80;78.50
60313;DHT22;46158;52.850;6.970;2023-07-20T03:28:42;19.80;78.60
60313;DHT22;46158;52.850;6.970;2023-07-20T03:31:08;19.80;78.50
60313;DHT22;46158;52.850;6.970;2023-07-20T03:33:34;19.80;78.60
60313;DHT22;46158;52.850;6.970;2023-07-20T03:36:00;19.80;78.50
60313;DHT22;46158;52.850;6.970;2023-07-20T03:38:26;19.80;78.50
60313;DHT22;46158;52.850;6.970;2023-07-20T03:40:54;19.80;78.50
60313;DHT22;46158;52.850;6.970;2023-07-20T03:43:21;19.80;78.50
60313;DHT22;46158;52.850;6.970;2023-07-20T03:45:47;19.80;78.50
60313;DHT22;46158;52.850;6.970;2023-07-20T03:48:20;19.80;78.50
60313;DHT22;46158;52.850;6.970;2023-07-20T03:50:49;19.80;78.40
60313;DHT22;46158;52.850;6.970;2023-07-20T03:53:15;19.80;78.50
60313;DHT22;46158;52.850;6.970;2023-07-20T03:55:51;19.70;78.40
60313;DHT22;46158;52.850;6.970;2023-07-20T03:58:18;19.80;78.40
60313;DHT22;46158;52.850;6.970;2023-07-20T04:00:48;19.70;78.40
60313;DHT22;46158;52.850;6.970;2023-07-20T04:03:15;19.70;78.40
60313;DHT22;46158;52.850;6.970;2023-07-20T04:05:42;19.70;78.40
60313;DHT22;46158;52.850;6.970;2023-07-20T04:08:07;19.70;78.40
60313;DHT22;46158;52.850;6.970;2023-07-20T04:10:33;19.70;78.40
60313;DHT22;46158;52.850;6.970;2023-07-20T04:13:00;19.70;78.40
60313;DHT22;46158;52.850;6.970;2023-07-20T04:15:25;19.70;78.40
60313;DHT22;46158;52.850;6.970;2023-07-20T04:17:51;19.70;78.40
60313;DHT22;46158;52.850;6.970;2023-07-20T04:20:16;19.70;78.40
60313;DHT22;46158;52.850;6.970;2023-07-20T04:22:43;19.70;78.40
60313;DHT22;46158;52.850;6.970;2023-07-20T04:25:09;19.70;78.40
60313;DHT22;46158;52.850;6.970;2023-07-20T04:27:36;19.70;78.40
60313;DHT22;46158;52.850;6.970;2023-07-20T04:30:02;19.60;78.40
60313;DHT22;46158;52.850;6.970;2023-07-20T04:32:29;19.60;78.40
60313;DHT22;46158;52.850;6.970;2023-07-20T04:34:54;19.60;78.40
60313;DHT22;46158;52.850;6.970;2023-07-20T04:37:20;19.60;78.40
60313;DHT22;46158;52.850;6.970;2023-07-20T04:39:46;19.60;78.40
60313;DHT22;46158;52.850;6.970;2023-07-20T04:42:12;19.60;78.40
60313;DHT22;46158;52.850;6.970;2023-07-20T04:44:38;19.60;78.70
60313;DHT22;46158;52.850;6.970;2023-07-20T04:47:04;19.60;78.40
60313;DHT22;46158;52.850;6.970;2023-07-20T04:49:29;19.60;78.40
60313;DHT22;46158;52.850;6.970;2023-07-20T04:51:55;19.60;78.20
60313;DHT22;46158;52.850;6.970;2023-07-20T04:54:20;19.60;78.90
60313;DHT22;46158;52.850;6.970;2023-07-20T04:56:46;19.60;78.30
60313;DHT22;46158;52.850;6.970;2023-07-20T04:59:12;19.60;78.20
60313;DHT22;46158;52.850;6.970;2023-07-20T05:01:37;19.60;78.30
60313;DHT22;46158;52.850;6.970;2023-07-20T05:04:03;19.60;78.30
60313;DHT22;46158;52.850;6.970;2023-07-20T05:06:29;19.60;78.30
60313;DHT22;46158;52.850;6.970;2023-07-20T05:08:54;19.60;78.30
60313;DHT22;46158;52.850;6.970;2023-07-20T05:11:20;19.50;78.40
60313;DHT22;46158;52.850;6.970;2023-07-20T05:13:46;19.50;78.30
60313;DHT22;46158;52.850;6.970;2023-07-20T05:16:11;19.50;78.40
60313;DHT22;46158;52.850;6.970;2023-07-20T05:18:37;19.50;78.40
60313;DHT22;46158;52.850;6.970;2023-07-20T05:21:03;19.50;78.40
60313;DHT22;46158;52.850;6.970;2023-07-20T05:23:28;19.50;78.40
60313;DHT22;46158;52.850;6.970;2023-07-20T05:25:58;19.50;78.40
60313;DHT22;46158;52.850;6.970;2023-07-20T05:28:24;19.50;78.40
60313;DHT22;46158;52.850;6.970;2023-07-20T05:30:50;19.50;78.50
60313;DHT22;46158;52.850;6.970;2023-07-20T05:33:22;19.50;78.40
60313;DHT22;46158;52.850;6.970;2023-07-20T05:35:48;19.50;78.40
60313;DHT22;46158;52.850;6.970;2023-07-20T05:38:14;19.50;78.40
60313;DHT22;46158;52.850;6.970;2023-07-20T05:40:44;19.50;78.40
60313;DHT22;46158;52.850;6.970;2023-07-20T05:43:10;19.50;78.40
60313;DHT22;46158;52.850;6.970;2023-07-20T05:45:36;19.50;78.50
60313;DHT22;46158;52.850;6.970;2023-07-20T05:48:02;19.50;78.40
60313;DHT22;46158;52.850;6.970;2023-07-20T05:50:27;19.50;78.40
60313;DHT22;46158;52.850;6.970;2023-07-20T05:52:54;19.50;78.40
60313;DHT22;46158;52.850;6.970;2023-07-20T05:55:20;19.50;78.40
60313;DHT22;46158;52.850;6.970;2023-07-20T05:57:46;19.50;78.40
60313;DHT22;46158;52.850;6.970;2023-07-20T06:00:12;19.50;78.40
60313;DHT22;46158;52.850;6.970;2023-07-20T06:02:38;19.50;78.40
60313;DHT22;46158;52.850;6.970;2023-07-20T06:05:06;19.50;78.40
60313;DHT22;46158;52.850;6.970;2023-07-20T06:07:36;19.50;78.40
60313;DHT22;46158;52.850;6.970;2023-07-20T06:10:01;19.50;78.40
60313;DHT22;46158;52.850;6.970;2023-07-20T06:12:27;19.50;78.40
60313;DHT22;46158;52.850;6.970;2023-07-20T06:14:53;19.50;78.30
60313;DHT22;46158;52.850;6.970;2023-07-20T06:17:19;19.50;78.00
60313;DHT22;46158;52.850;6.970;2023-07-20T06:19:45;19.50;77.90
60313;DHT22;46158;52.850;6.970;2023-07-20T06:22:11;19.50;77.70
60313;DHT22;46158;52.850;6.970;2023-07-20T06:24:36;19.50;77.70
60313;DHT22;46158;52.850;6.970;2023-07-20T06:27:02;19.50;77.70
60313;DHT22;46158;52.850;6.970;2023-07-20T06:29:28;19.50;77.70
60313;DHT22;46158;52.850;6.970;2023-07-20T06:31:54;19.50;77.70
60313;DHT22;46158;52.850;6.970;2023-07-20T06:34:19;19.50;77.60
60313;DHT22;46158;52.850;6.970;2023-07-20T06:36:45;19.50;77.60
60313;DHT22;46158;52.850;6.970;2023-07-20T06:39:11;19.50;77.60
60313;DHT22;46158;52.850;6.970;2023-07-20T06:41:36;19.50;77.60
60313;DHT22;46158;52.850;6.970;2023-07-20T06:44:02;19.50;77.60
60313;DHT22;46158;52.850;6.970;2023-07-20T06:46:28;19.50;77.60
60313;DHT22;46158;52.850;6.970;2023-07-20T06:48:54;19.50;77.70
60313;DHT22;46158;52.850;6.970;2023-07-20T06:51:20;19.40;77.70
60313;DHT22;46158;52.850;6.970;2023-07-20T06:53:45;19.40;77.70
60313;DHT22;46158;52.850;6.970;2023-07-20T06:56:11;19.40;77.70
60313;DHT22;46158;52.850;6.970;2023-07-20T06:58:37;19.50;77.80
60313;DHT22;46158;52.850;6.970;2023-07-20T07:01:08;19.50;78.00
60313;DHT22;46158;52.850;6.970;2023-07-20T07:03:34;19.50;77.90
60313;DHT22;46158;52.850;6.970;2023-07-20T07:06:00;19.50;78.00
60313;DHT22;46158;52.850;6.970;2023-07-20T07:08:26;19.50;78.00
60313;DHT22;46158;52.850;6.970;2023-07-20T07:10:52;19.50;78.10
60313;DHT22;46158;52.850;6.970;2023-07-20T07:13:18;19.50;78.10
60313;DHT22;46158;52.850;6.970;2023-07-20T07:15:44;19.60;78.20
60313;DHT22;46158;52.850;6.970;2023-07-20T07:18:10;19.50;78.10
60313;DHT22;46158;52.850;6.970;2023-07-20T07:20:35;19.60;78.20
60313;DHT22;46158;52.850;6.970;2023-07-20T07:23:01;19.60;78.20
60313;DHT22;46158;52.850;6.970;2023-07-20T07:25:27;19.60;78.20
60313;DHT22;46158;52.850;6.970;2023-07-20T07:27:54;19.60;78.20
60313;DHT22;46158;52.850;6.970;2023-07-20T07:30:21;19.60;78.20
60313;DHT22;46158;52.850;6.970;2023-07-20T07:32:47;19.60;78.20
60313;DHT22;46158;52.850;6.970;2023-07-20T07:35:13;19.70;78.30
60313;DHT22;46158;52.850;6.970;2023-07-20T07:37:38;19.70;78.20
60313;DHT22;46158;52.850;6.970;2023-07-20T07:40:05;19.70;78.20
60313;DHT22;46158;52.850;6.970;2023-07-20T07:42:31;19.70;78.20
60313;DHT22;46158;52.850;6.970;2023-07-20T07:44:57;19.70;78.20
60313;DHT22;46158;52.850;6.970;2023-07-20T07:47:23;19.70;78.20
60313;DHT22;46158;52.850;6.970;2023-07-20T07:49:48;19.70;78.10
60313;DHT22;46158;52.850;6.970;2023-07-20T07:52:15;19.80;78.10
60313;DHT22;46158;52.850;6.970;2023-07-20T07:54:42;19.80;78.00
60313;DHT22;46158;52.850;6.970;2023-07-20T07:57:08;19.80;77.90
60313;DHT22;46158;52.850;6.970;2023-07-20T07:59:34;19.80;77.80
60313;DHT22;46158;52.850;6.970;2023-07-20T08:02:05;19.80;77.80
60313;DHT22;46158;52.850;6.970;2023-07-20T08:04:31;19.80;77.60
60313;DHT22;46158;52.850;6.970;2023-07-20T08:06:57;19.80;77.60
60313;DHT22;46158;52.850;6.970;2023-07-20T08:09:23;19.90;77.60
60313;DHT22;46158;52.850;6.970;2023-07-20T08:11:49;19.90;77.40
60313;DHT22;46158;52.850;6.970;2023-07-20T08:14:15;19.90;77.30
60313;DHT22;46158;52.850;6.970;2023-07-20T08:16:41;19.90;77.20
60313;DHT22;46158;52.850;6.970;2023-07-20T08:19:07;19.90;77.10
60313;DHT22;46158;52.850;6.970;2023-07-20T08:21:32;19.90;77.10
60313;DHT22;46158;52.850;6.970;2023-07-20T08:23:58;19.90;77.00
60313;DHT22;46158;52.850;6.970;2023-07-20T08:26:24;19.90;76.90
60313;DHT22;46158;52.850;6.970;2023-07-20T08:28:52;20.00;76.80
60313;DHT22;46158;52.850;6.970;2023-07-20T08:31:19;20.00;76.60
60313;DHT22;46158;52.850;6.970;2023-07-20T08:33:44;19.90;76.60
60313;DHT22;46158;52.850;6.970;2023-07-20T08:36:10;20.00;76.60
60313;DHT22;46158;52.850;6.970;2023-07-20T08:38:36;20.00;76.40
60313;DHT22;46158;52.850;6.970;2023-07-20T08:41:01;20.00;76.30
60313;DHT22;46158;52.850;6.970;2023-07-20T08:43:28;20.00;76.20
60313;DHT22;46158;52.850;6.970;2023-07-20T08:45:55;20.00;76.10
60313;DHT22;46158;52.850;6.970;2023-07-20T08:48:24;20.10;75.90
60313;DHT22;46158;52.850;6.970;2023-07-20T08:50:52;20.00;75.70
60313;DHT22;46158;52.850;6.970;2023-07-20T08:53:22;20.10;75.70
60313;DHT22;46158;52.850;6.970;2023-07-20T08:55:50;20.10;75.70
60313;DHT22;46158;52.850;6.970;2023-07-20T08:58:18;20.10;75.50
60313;DHT22;46158;52.850;6.970;2023-07-20T09:00:44;20.10;75.40
60313;DHT22;46158;52.850;6.970;2023-07-20T09:03:11;20.10;75.30
60313;DHT22;46158;52.850;6.970;2023-07-20T09:05:37;20.10;75.30
60313;DHT22;46158;52.850;6.970;2023-07-20T09:08:04;20.10;75.30
60313;DHT22;46158;52.850;6.970;2023-07-20T09:10:30;20.10;75.10
60313;DHT22;46158;52.850;6.970;2023-07-20T09:12:56;20.10;75.10
60313;DHT22;46158;52.850;6.970;2023-07-20T09:15:22;20.10;74.90
60313;DHT22;46158;52.850;6.970;2023-07-20T09:17:52;20.20;74.80
60313;DHT22;46158;52.850;6.970;2023-07-20T09:20:20;20.20;74.70
60313;DHT22;46158;52.850;6.970;2023-07-20T09:22:45;20.20;74.60
60313;DHT22;46158;52.850;6.970;2023-07-20T09:25:16;20.20;74.50
60313;DHT22;46158;52.850;6.970;2023-07-20T09:27:47;20.20;74.10
60313;DHT22;46158;52.850;6.970;2023-07-20T09:30:14;20.20;73.80
60313;DHT22;46158;52.850;6.970;2023-07-20T09:32:45;20.20;74.00
60313;DHT22;46158;52.850;6.970;2023-07-20T09:35:15;20.20;74.00
60313;DHT22;46158;52.850;6.970;2023-07-20T09:37:54;20.20;73.80
60313;DHT22;46158;52.850;6.970;2023-07-20T09:40:21;20.20;73.80
60313;DHT22;46158;52.850;6.970;2023-07-20T09:42:47;20.20;73.80
60313;DHT22;46158;52.850;6.970;2023-07-20T09:45:13;20.20;73.60
60313;DHT22;46158;52.850;6.970;2023-07-20T09:47:40;20.20;73.70
60313;DHT22;46158;52.850;6.970;2023-07-20T09:50:07;20.30;73.70
60313;DHT22;46158;52.850;6.970;2023-07-20T09:52:42;20.30;73.60
60313;DHT22;46158;52.850;6.970;2023-07-20T09:55:10;20.20;73.70
60313;DHT22;46158;52.850;6.970;2023-07-20T09:57:39;20.20;73.80
60313;DHT22;46158;52.850;6.970;2023-07-20T10:00:07;20.20;73.60
60313;DHT22;46158;52.850;6.970;2023-07-20T10:02:43;20.30;73.60
60313;DHT22;46158;52.850;6.970;2023-07-20T10:05:12;20.30;73.60
60313;DHT22;46158;52.850;6.970;2023-07-20T10:07:45;20.30;73.60
60313;DHT22;46158;52.850;6.970;2023-07-20T10:10:14;20.30;73.40
60313;DHT22;46158;52.850;6.970;2023-07-20T10:12:41;20.30;73.40
60313;DHT22;46158;52.850;6.970;2023-07-20T10:15:12;20.30;73.20
60313;DHT22;46158;52.850;6.970;2023-07-20T10:17:53;20.30;73.00
60313;DHT22;46158;52.850;6.970;2023-07-20T10:20:22;20.30;73.10
60313;DHT22;46158;52.850;6.970;2023-07-20T10:22:49;20.30;73.30
60313;DHT22;46158;52.850;6.970;2023-07-20T10:25:18;20.30;73.50
60313;DHT22;46158;52.850;6.970;2023-07-20T10:27:45;20.30;73.60
60313;DHT22;46158;52.850;6.970;2023-07-20T10:43:25;20.30;73.00
60313;DHT22;46158;52.850;6.970;2023-07-20T10:45:52;21.00;72.20
60313;DHT22;46158;52.850;6.970;2023-07-20T10:48:20;20.80;72.80
60313;DHT22;46158;52.850;6.970;2023-07-20T10:53:36;20.70;73.30
60313;DHT22;46158;52.850;6.970;2023-07-20T10:56:15;20.60;73.50
60313;DHT22;46158;52.850;6.970;2023-07-20T10:58:41;20.70;73.60
60313;DHT22;46158;52.850;6.970;2023-07-20T11:01:08;20.60;73.80
60313;DHT22;46158;52.850;6.970;2023-07-20T11:03:37;20.60;73.70
60313;DHT22;46158;52.850;6.970;2023-07-20T11:08:56;20.60;73.70
60313;DHT22;46158;52.850;6.970;2023-07-20T11:11:29;20.60;73.90
60313;DHT22;46158;52.850;6.970;2023-07-20T11:14:00;20.60;74.00
60313;DHT22;46158;52.850;6.970;2023-07-20T11:16:42;20.50;73.90
60313;DHT22;46158;52.850;6.970;2023-07-20T11:19:20;20.60;73.90
60313;DHT22;46158;52.850;6.970;2023-07-20T11:21:49;20.60;73.10
60313;DHT22;46158;52.850;6.970;2023-07-20T11:24:15;20.60;72.70
60313;DHT22;46158;52.850;6.970;2023-07-20T11:26:43;20.60;72.80
60313;DHT22;46158;52.850;6.970;2023-07-20T11:29:08;20.50;73.00
60313;DHT22;46158;52.850;6.970;2023-07-20T11:31:38;20.50;73.20
60313;DHT22;46158;52.850;6.970;2023-07-20T11:34:04;20.60;73.30
60313;DHT22;46158;52.850;6.970;2023-07-20T11:36:30;20.50;73.10
60313;DHT22;46158;52.850;6.970;2023-07-20T11:38:58;20.50;73.40
60313;DHT22;46158;52.850;6.970;2023-07-20T11:41:25;20.50;72.90
60313;DHT22;46158;52.850;6.970;2023-07-20T11:43:51;20.50;72.60
60313;DHT22;46158;52.850;6.970;2023-07-20T11:46:17;20.50;72.50
60313;DHT22;46158;52.850;6.970;2023-07-20T11:48:43;20.60;72.40
60313;DHT22;46158;52.850;6.970;2023-07-20T11:51:16;20.50;72.20
60313;DHT22;46158;52.850;6.970;2023-07-20T11:53:47;20.60;72.10
60313;DHT22;46158;52.850;6.970;2023-07-20T11:56:13;20.60;71.90
60313;DHT22;46158;52.850;6.970;2023-07-20T11:58:45;20.60;71.90
60313;DHT22;46158;52.850;6.970;2023-07-20T12:01:14;20.60;71.90
60313;DHT22;46158;52.850;6.970;2023-07-20T12:03:42;20.60;72.00
60313;DHT22;46158;52.850;6.970;2023-07-20T12:06:11;20.60;72.00
60313;DHT22;46158;52.850;6.970;2023-07-20T12:08:42;20.60;71.90
60313;DHT22;46158;52.850;6.970;2023-07-20T12:11:08;20.60;71.90
60313;DHT22;46158;52.850;6.970;2023-07-20T12:13:43;20.60;72.00
60313;DHT22;46158;52.850;6.970;2023-07-20T12:16:16;20.60;72.00
60313;DHT22;46158;52.850;6.970;2023-07-20T12:18:45;20.60;72.20
60313;DHT22;46158;52.850;6.970;2023-07-20T12:21:11;20.60;72.40
60313;DHT22;46158;52.850;6.970;2023-07-20T12:23:39;20.60;72.40
60313;DHT22;46158;52.850;6.970;2023-07-20T12:26:09;20.60;72.40
60313;DHT22;46158;52.850;6.970;2023-07-20T12:28:41;20.60;73.00
60313;DHT22;46158;52.850;6.970;2023-07-20T12:31:10;20.60;72.40
60313;DHT22;46158;52.850;6.970;2023-07-20T12:33:37;20.60;72.40
60313;DHT22;46158;52.850;6.970;2023-07-20T12:36:03;20.60;72.40
60313;DHT22;46158;52.850;6.970;2023-07-20T12:38:30;20.60;72.60
60313;DHT22;46158;52.850;6.970;2023-07-20T12:41:01;20.60;72.70
60313;DHT22;46158;52.850;6.970;2023-07-20T12:43:27;20.60;72.70
60313;DHT22;46158;52.850;6.970;2023-07-20T12:45:53;20.60;72.80
60313;DHT22;46158;52.850;6.970;2023-07-20T12:48:19;20.60;72.80
60313;DHT22;46158;52.850;6.970;2023-07-20T12:50:44;20.50;72.60
60313;DHT22;46158;52.850;6.970;2023-07-20T12:53:10;20.60;72.60
60313;DHT22;46158;52.850;6.970;2023-07-20T12:55:37;20.60;72.40
60313;DHT22;46158;52.850;6.970;2023-07-20T12:58:04;20.60;72.30
60313;DHT22;46158;52.850;6.970;2023-07-20T13:00:30;20.60;72.10
60313;DHT22;46158;52.850;6.970;2023-07-20T13:02:55;20.60;72.10
60313;DHT22;46158;52.850;6.970;2023-07-20T13:05:21;20.50;71.90
60313;DHT22;46158;52.850;6.970;2023-07-20T13:07:47;20.50;71.80
60313;DHT22;46158;52.850;6.970;2023-07-20T13:10:13;20.50;71.70
60313;DHT22;46158;52.850;6.970;2023-07-20T13:12:38;20.50;71.60
60313;DHT22;46158;52.850;6.970;2023-07-20T13:15:06;20.50;71.40
60313;DHT22;46158;52.850;6.970;2023-07-20T13:17:34;20.50;71.30
60313;DHT22;46158;52.850;6.970;2023-07-20T13:20:00;20.50;71.30
60313;DHT22;46158;52.850;6.970;2023-07-20T13:22:25;20.50;71.90
60313;DHT22;46158;52.850;6.970;2023-07-20T13:24:53;20.50;71.40
60313;DHT22;46158;52.850;6.970;2023-07-20T13:27:19;20.50;71.40
60313;DHT22;46158;52.850;6.970;2023-07-20T13:29:45;20.50;72.30
60313;DHT22;46158;52.850;6.970;2023-07-20T13:32:13;20.50;71.70
60313;DHT22;46158;52.850;6.970;2023-07-20T13:34:46;20.50;71.80
60313;DHT22;46158;52.850;6.970;2023-07-20T13:37:12;20.50;71.80
60313;DHT22;46158;52.850;6.970;2023-07-20T13:39:38;20.50;71.90
60313;DHT22;46158;52.850;6.970;2023-07-20T13:42:05;20.50;71.90
60313;DHT22;46158;52.850;6.970;2023-07-20T13:44:31;20.50;72.00
60313;DHT22;46158;52.850;6.970;2023-07-20T13:46:57;20.50;72.00
60313;DHT22;46158;52.850;6.970;2023-07-20T13:49:23;20.50;72.00
60313;DHT22;46158;52.850;6.970;2023-07-20T13:51:49;20.50;72.10
60313;DHT22;46158;52.850;6.970;2023-07-20T13:54:15;20.50;72.10
60313;DHT22;46158;52.850;6.970;2023-07-20T13:56:41;20.50;72.10
60313;DHT22;46158;52.850;6.970;2023-07-20T13:59:06;20.50;72.10
60313;DHT22;46158;52.850;6.970;2023-07-20T14:01:32;20.60;72.30
60313;DHT22;46158;52.850;6.970;2023-07-20T14:04:02;20.50;72.20
60313;DHT22;46158;52.850;6.970;2023-07-20T14:06:32;20.50;72.30
60313;DHT22;46158;52.850;6.970;2023-07-20T14:08:58;20.60;72.30
60313;DHT22;46158;52.850;6.970;2023-07-20T14:11:24;20.50;72.30
60313;DHT22;46158;52.850;6.970;2023-07-20T14:13:51;20.50;72.50
60313;DHT22;46158;52.850;6.970;2023-07-20T14:16:18;20.50;72.40
60313;DHT22;46158;52.850;6.970;2023-07-20T14:18:44;20.60;72.50
60313;DHT22;46158;52.850;6.970;2023-07-20T14:21:12;20.60;72.50
60313;DHT22;46158;52.850;6.970;2023-07-20T14:23:38;20.60;72.60
60313;DHT22;46158;52.850;6.970;2023-07-20T14:26:05;20.50;72.60
60313;DHT22;46158;52.850;6.970;2023-07-20T14:28:31;20.60;72.70
60313;DHT22;46158;52.850;6.970;2023-07-20T14:30:57;20.60;73.00
60313;DHT22;46158;52.850;6.970;2023-07-20T14:33:26;20.50;73.10
60313;DHT22;46158;52.850;6.970;2023-07-20T14:35:51;20.50;73.40
60313;DHT22;46158;52.850;6.970;2023-07-20T14:38:17;20.60;73.80
60313;DHT22;46158;52.850;6.970;2023-07-20T14:40:43;20.50;74.00
60313;DHT22;46158;52.850;6.970;2023-07-20T14:43:08;20.50;74.20
60313;DHT22;46158;52.850;6.970;2023-07-20T14:45:34;20.50;74.30
60313;DHT22;46158;52.850;6.970;2023-07-20T14:48:02;20.50;74.30
60313;DHT22;46158;52.850;6.970;2023-07-20T14:50:28;20.50;74.30
60313;DHT22;46158;52.850;6.970;2023-07-20T14:52:54;20.50;74.40
60313;DHT22;46158;52.850;6.970;2023-07-20T14:55:20;20.50;74.40
60313;DHT22;46158;52.850;6.970;2023-07-20T14:57:46;20.50;74.40
60313;DHT22;46158;52.850;6.970;2023-07-20T15:00:14;20.50;74.30
60313;DHT22;46158;52.850;6.970;2023-07-20T15:02:40;20.50;74.20
60313;DHT22;46158;52.850;6.970;2023-07-20T15:05:07;20.50;74.10
60313;DHT22;46158;52.850;6.970;2023-07-20T15:07:33;20.50;74.00
60313;DHT22;46158;52.850;6.970;2023-07-20T15:10:00;20.50;73.90
60313;DHT22;46158;52.850;6.970;2023-07-20T15:12:26;20.50;73.80
60313;DHT22;46158;52.850;6.970;2023-07-20T15:15:06;20.50;73.70
60313;DHT22;46158;52.850;6.970;2023-07-20T15:17:32;20.50;73.50
60313;DHT22;46158;52.850;6.970;2023-07-20T15:19:58;20.50;73.40
60313;DHT22;46158;52.850;6.970;2023-07-20T15:22:25;20.50;73.70
60313;DHT22;46158;52.850;6.970;2023-07-20T15:24:50;20.50;73.50
60313;DHT22;46158;52.850;6.970;2023-07-20T15:27:16;20.50;73.40
60313;DHT22;46158;52.850;6.970;2023-07-20T15:29:42;20.50;73.30
60313;DHT22;46158;52.850;6.970;2023-07-20T15:32:09;20.50;73.10
60313;DHT22;46158;52.850;6.970;2023-07-20T15:34:35;20.50;73.00
60313;DHT22;46158;52.850;6.970;2023-07-20T15:37:01;20.50;72.90
60313;DHT22;46158;52.850;6.970;2023-07-20T15:39:27;20.50;72.90
60313;DHT22;46158;52.850;6.970;2023-07-20T15:41:53;20.50;72.90
60313;DHT22;46158;52.850;6.970;2023-07-20T15:44:19;20.50;72.90
60313;DHT22;46158;52.850;6.970;2023-07-20T15:46:46;20.50;72.90
60313;DHT22;46158;52.850;6.970;2023-07-20T15:49:12;20.50;72.90
60313;DHT22;46158;52.850;6.970;2023-07-20T15:51:38;20.50;72.80
60313;DHT22;46158;52.850;6.970;2023-07-20T15:54:11;20.50;72.70
60313;DHT22;46158;52.850;6.970;2023-07-20T15:56:38;20.50;72.70
60313;DHT22;46158;52.850;6.970;2023-07-20T15:59:04;20.50;72.70